sensor_id;sensor_type;location;lat;lon;timestamp;P1;durP1;ratioP1;P2;durP2;ratioP2
8490;SDS011;4282;49.986;7.938;2023-04-15T00:02:00;3.40;;;1.50;;
8490;SDS011;4282;49.986;7.938;2023-04-15T00:04:28;2.00;;;1.43;;
8490;SDS011;4282;49.986;7.938;2023-04-15T00:07:00;3.03;;;1.50;;
8490;SDS011;4282;49.986;7.938;2023-04-15T00:09:28;1.77;;;1.40;;
8490;SDS011;4282;49.986;7.938;2023-04-15T00:11:56;5.07;;;1.50;;
8490;SDS011;4282;49.986;7.938;2023-04-15T00:14:24;2.23;;;1.27;;
8490;SDS011;4282;49.986;7.938;2023-04-15T00:16:52;2.77;;;1.00;;
8490;SDS011;4282;49.986;7.938;2023-04-15T00:19:21;1.50;;;1.10;;
8490;SDS011;4282;49.986;7.938;2023-04-15T00:21:49;2.57;;;1.20;;
8490;SDS011;4282;49.986;7.938;2023-04-15T00:24:20;3.93;;;1.37;;
8490;SDS011;4282;49.986;7.938;2023-04-15T00:26:48;1.13;;;0.80;;
8490;SDS011;4282;49.986;7.938;2023-04-15T00:29:17;3.17;;;1.20;;
8490;SDS011;4282;49.986;7.938;2023-04-15T00:31:45;2.57;;;1.33;;
8490;SDS011;4282;49.986;7.938;2023-04-15T00:34:13;1.97;;;1.00;;
8490;SDS011;4282;49.986;7.938;2023-04-15T00:36:41;4.50;;;1.17;;
8490;SDS011;4282;49.986;7.938;2023-04-15T00:39:10;4.63;;;1.63;;
8490;SDS011;4282;49.986;7.938;2023-04-15T00:41:41;1.73;;;1.20;;
8490;SDS011;4282;49.986;7.938;2023-04-15T00:44:09;2.97;;;1.53;;
8490;SDS011;4282;49.986;7.938;2023-04-15T00:46:38;2.10;;;1.20;;
8490;SDS011;4282;49.986;7.938;2023-04-15T00:49:07;1.90;;;1.03;;
8490;SDS011;4282;49.986;7.938;2023-04-15T00:51:35;4.20;;;1.63;;
8490;SDS011;4282;49.986;7.938;2023-04-15T00:54:04;3.43;;;1.37;;
8490;SDS011;4282;49.986;7.938;2023-04-15T00:56:34;1.83;;;1.20;;
8490;SDS011;4282;49.986;7.938;2023-04-15T00:59:05;2.07;;;1.40;;
8490;SDS011;4282;49.986;7.938;2023-04-15T01:01:34;3.70;;;1.50;;
8490;SDS011;4282;49.986;7.938;2023-04-15T01:04:02;4.83;;;1.50;;
8490;SDS011;4282;49.986;7.938;2023-04-15T01:06:31;4.10;;;1.27;;
8490;SDS011;4282;49.986;7.938;2023-04-15T01:08:59;1.60;;;1.27;;
8490;SDS011;4282;49.986;7.938;2023-04-15T01:11:28;4.20;;;1.27;;
8490;SDS011;4282;49.986;7.938;2023-04-15T01:13:57;2.13;;;1.20;;
8490;SDS011;4282;49.986;7.938;2023-04-15T01:16:28;2.10;;;1.17;;
8490;SDS011;4282;49.986;7.938;2023-04-15T01:18:56;2.73;;;1.00;;
8490;SDS011;4282;49.986;7.938;2023-04-15T01:21:25;3.00;;;0.90;;
8490;SDS011;4282;49.986;7.938;2023-04-15T01:23:54;1.67;;;1.47;;
8490;SDS011;4282;49.986;7.938;2023-04-15T01:26:26;3.43;;;1.27;;
8490;SDS011;4282;49.986;7.938;2023-04-15T01:28:54;1.97;;;1.30;;
8490;SDS011;4282;49.986;7.938;2023-04-15T01:31:23;1.80;;;1.07;;
8490;SDS011;4282;49.986;7.938;2023-04-15T01:33:51;4.43;;;1.20;;
8490;SDS011;4282;49.986;7.938;2023-04-15T01:36:19;2.77;;;1.17;;
8490;SDS011;4282;49.986;7.938;2023-04-15T01:38:47;2.33;;;1.00;;
8490;SDS011;4282;49.986;7.938;2023-04-15T01:41:16;2.70;;;1.27;;
8490;SDS011;4282;49.986;7.938;2023-04-15T01:43:51;1.93;;;1.20;;
8490;SDS011;4282;49.986;7.938;2023-04-15T01:46:21;4.00;;;1.30;;
8490;SDS011;4282;49.986;7.938;2023-04-15T01:48:49;3.07;;;1.00;;
8490;SDS011;4282;49.986;7.938;2023-04-15T01:51:17;2.73;;;1.20;;
8490;SDS011;4282;49.986;7.938;2023-04-15T01:53:46;1.90;;;1.33;;
8490;SDS011;4282;49.986;7.938;2023-04-15T01:56:14;2.07;;;1.10;;
8490;SDS011;4282;49.986;7.938;2023-04-15T01:58:42;2.83;;;1.20;;
8490;SDS011;4282;49.986;7.938;2023-04-15T02:01:13;1.73;;;1.07;;
8490;SDS011;4282;49.986;7.938;2023-04-15T02:03:43;2.30;;;0.90;;
8490;SDS011;4282;49.986;7.938;2023-04-15T02:06:11;3.13;;;1.40;;
8490;SDS011;4282;49.986;7.938;2023-04-15T02:08:40;1.30;;;1.10;;
8490;SDS011;4282;49.986;7.938;2023-04-15T02:11:08;3.40;;;1.10;;
8490;SDS011;4282;49.986;7.938;2023-04-15T02:13:36;2.17;;;1.07;;
8490;SDS011;4282;49.986;7.938;2023-04-15T02:16:13;2.70;;;1.10;;
8490;SDS011;4282;49.986;7.938;2023-04-15T02:18:45;1.33;;;1.10;;
8490;SDS011;4282;49.986;7.938;2023-04-15T02:21:13;3.40;;;1.47;;
8490;SDS011;4282;49.986;7.938;2023-04-15T02:23:43;2.33;;;1.10;;
8490;SDS011;4282;49.986;7.938;2023-04-15T02:26:12;2.40;;;1.30;;
8490;SDS011;4282;49.986;7.938;2023-04-15T02:28:41;3.63;;;1.20;;
8490;SDS011;4282;49.986;7.938;2023-04-15T02:31:09;2.07;;;1.00;;
8490;SDS011;4282;49.986;7.938;2023-04-15T02:33:39;3.33;;;1.17;;
8490;SDS011;4282;49.986;7.938;2023-04-15T02:36:08;3.40;;;1.20;;
8490;SDS011;4282;49.986;7.938;2023-04-15T02:38:36;1.80;;;1.33;;
8490;SDS011;4282;49.986;7.938;2023-04-15T02:41:06;2.57;;;1.10;;
8490;SDS011;4282;49.986;7.938;2023-04-15T02:43:35;3.63;;;1.20;;
8490;SDS011;4282;49.986;7.938;2023-04-15T02:46:04;2.30;;;1.00;;
8490;SDS011;4282;49.986;7.938;2023-04-15T02:48:32;1.30;;;0.90;;
8490;SDS011;4282;49.986;7.938;2023-04-15T02:51:13;2.07;;;1.20;;
8490;SDS011;4282;49.986;7.938;2023-04-15T02:53:43;1.97;;;1.03;;
8490;SDS011;4282;49.986;7.938;2023-04-15T02:56:12;1.77;;;1.03;;
8490;SDS011;4282;49.986;7.938;2023-04-15T02:58:41;1.47;;;1.00;;
8490;SDS011;4282;49.986;7.938;2023-04-15T03:01:10;3.23;;;1.00;;
8490;SDS011;4282;49.986;7.938;2023-04-15T03:03:38;2.93;;;1.20;;
8490;SDS011;4282;49.986;7.938;2023-04-15T03:06:06;2.27;;;1.17;;
8490;SDS011;4282;49.986;7.938;2023-04-15T03:08:38;2.20;;;1.20;;
8490;SDS011;4282;49.986;7.938;2023-04-15T03:11:06;3.10;;;1.20;;
8490;SDS011;4282;49.986;7.938;2023-04-15T03:13:34;2.37;;;1.17;;
8490;SDS011;4282;49.986;7.938;2023-04-15T03:16:03;2.63;;;1.23;;
8490;SDS011;4282;49.986;7.938;2023-04-15T03:18:32;1.27;;;1.17;;
8490;SDS011;4282;49.986;7.938;2023-04-15T03:21:00;2.67;;;1.40;;
8490;SDS011;4282;49.986;7.938;2023-04-15T03:23:29;2.10;;;1.10;;
8490;SDS011;4282;49.986;7.938;2023-04-15T03:26:03;1.87;;;1.00;;
8490;SDS011;4282;49.986;7.938;2023-04-15T03:28:31;1.83;;;1.10;;
8490;SDS011;4282;49.986;7.938;2023-04-15T03:31:00;4.17;;;1.30;;
8490;SDS011;4282;49.986;7.938;2023-04-15T03:33:28;3.63;;;1.20;;
8490;SDS011;4282;49.986;7.938;2023-04-15T03:35:56;1.50;;;1.10;;
8490;SDS011;4282;49.986;7.938;2023-04-15T03:38:24;1.37;;;1.10;;
8490;SDS011;4282;49.986;7.938;2023-04-15T03:40:52;1.80;;;1.13;;
8490;SDS011;4282;49.986;7.938;2023-04-15T03:43:23;2.30;;;1.13;;
8490;SDS011;4282;49.986;7.938;2023-04-15T03:45:51;2.30;;;1.30;;
8490;SDS011;4282;49.986;7.938;2023-04-15T03:48:20;2.80;;;1.33;;
8490;SDS011;4282;49.986;7.938;2023-04-15T03:50:48;2.47;;;1.20;;
8490;SDS011;4282;49.986;7.938;2023-04-15T03:53:16;5.13;;;1.60;;
8490;SDS011;4282;49.986;7.938;2023-04-15T03:55:44;2.23;;;1.30;;
8490;SDS011;4282;49.986;7.938;2023-04-15T03:58:12;2.27;;;1.20;;
8490;SDS011;4282;49.986;7.938;2023-04-15T04:00:43;3.40;;;1.20;;
8490;SDS011;4282;49.986;7.938;2023-04-15T04:03:11;2.77;;;1.27;;
8490;SDS011;4282;49.986;7.938;2023-04-15T04:05:40;1.50;;;1.20;;
8490;SDS011;4282;49.986;7.938;2023-04-15T04:08:08;3.30;;;1.53;;
8490;SDS011;4282;49.986;7.938;2023-04-15T04:10:37;2.20;;;1.23;;
8490;SDS011;4282;49.986;7.938;2023-04-15T04:13:06;3.00;;;1.27;;
8490;SDS011;4282;49.986;7.938;2023-04-15T04:15:34;3.77;;;1.67;;
8490;SDS011;4282;49.986;7.938;2023-04-15T04:18:05;1.50;;;1.10;;
8490;SDS011;4282;49.986;7.938;2023-04-15T04:20:33;2.60;;;1.10;;
8490;SDS011;4282;49.986;7.938;2023-04-15T04:23:01;1.70;;;1.40;;
8490;SDS011;4282;49.986;7.938;2023-04-15T04:25:29;2.50;;;1.40;;
8490;SDS011;4282;49.986;7.938;2023-04-15T04:27:57;3.93;;;1.77;;
8490;SDS011;4282;49.986;7.938;2023-04-15T04:30:26;3.37;;;1.40;;
8490;SDS011;4282;49.986;7.938;2023-04-15T04:32:54;2.73;;;1.43;;
8490;SDS011;4282;49.986;7.938;2023-04-15T04:35:25;2.90;;;1.30;;
8490;SDS011;4282;49.986;7.938;2023-04-15T04:37:53;2.53;;;1.27;;
8490;SDS011;4282;49.986;7.938;2023-04-15T04:40:21;2.60;;;1.43;;
8490;SDS011;4282;49.986;7.938;2023-04-15T04:42:50;2.57;;;1.60;;
8490;SDS011;4282;49.986;7.938;2023-04-15T04:45:18;5.40;;;1.87;;
8490;SDS011;4282;49.986;7.938;2023-04-15T04:47:46;1.60;;;1.50;;
8490;SDS011;4282;49.986;7.938;2023-04-15T04:50:15;2.03;;;1.37;;
8490;SDS011;4282;49.986;7.938;2023-04-15T04:52:46;1.50;;;1.40;;
8490;SDS011;4282;49.986;7.938;2023-04-15T04:55:14;4.07;;;1.40;;
8490;SDS011;4282;49.986;7.938;2023-04-15T04:57:42;2.30;;;1.23;;
8490;SDS011;4282;49.986;7.938;2023-04-15T05:00:11;3.67;;;1.30;;
8490;SDS011;4282;49.986;7.938;2023-04-15T05:02:40;2.03;;;1.20;;
8490;SDS011;4282;49.986;7.938;2023-04-15T05:05:08;2.57;;;1.27;;
8490;SDS011;4282;49.986;7.938;2023-04-15T05:07:37;2.70;;;1.70;;
8490;SDS011;4282;49.986;7.938;2023-04-15T05:10:08;1.83;;;1.20;;
8490;SDS011;4282;49.986;7.938;2023-04-15T05:12:38;3.30;;;1.63;;
8490;SDS011;4282;49.986;7.938;2023-04-15T05:15:07;2.70;;;1.40;;
8490;SDS011;4282;49.986;7.938;2023-04-15T05:17:36;4.00;;;1.40;;
8490;SDS011;4282;49.986;7.938;2023-04-15T05:20:05;1.60;;;1.20;;
8490;SDS011;4282;49.986;7.938;2023-04-15T05:22:34;3.23;;;1.80;;
8490;SDS011;4282;49.986;7.938;2023-04-15T05:25:03;2.77;;;1.50;;
8490;SDS011;4282;49.986;7.938;2023-04-15T05:27:35;3.87;;;2.00;;
8490;SDS011;4282;49.986;7.938;2023-04-15T05:30:04;3.70;;;1.13;;
8490;SDS011;4282;49.986;7.938;2023-04-15T05:32:33;2.73;;;1.20;;
8490;SDS011;4282;49.986;7.938;2023-04-15T05:35:01;2.87;;;1.60;;
8490;SDS011;4282;49.986;7.938;2023-04-15T05:37:29;3.03;;;1.53;;
8490;SDS011;4282;49.986;7.938;2023-04-15T05:39:57;2.27;;;1.50;;
8490;SDS011;4282;49.986;7.938;2023-04-15T05:42:26;4.07;;;1.87;;
8490;SDS011;4282;49.986;7.938;2023-04-15T05:44:57;3.07;;;1.60;;
8490;SDS011;4282;49.986;7.938;2023-04-15T05:47:25;2.40;;;1.70;;
8490;SDS011;4282;49.986;7.938;2023-04-15T05:49:53;5.03;;;1.97;;
8490;SDS011;4282;49.986;7.938;2023-04-15T05:52:23;1.97;;;1.40;;
8490;SDS011;4282;49.986;7.938;2023-04-15T05:54:51;3.00;;;1.33;;
8490;SDS011;4282;49.986;7.938;2023-04-15T05:57:19;2.67;;;1.20;;
8490;SDS011;4282;49.986;7.938;2023-04-15T05:59:48;3.33;;;1.80;;
8490;SDS011;4282;49.986;7.938;2023-04-15T06:02:19;2.70;;;1.67;;
8490;SDS011;4282;49.986;7.938;2023-04-15T06:04:47;2.70;;;1.90;;
8490;SDS011;4282;49.986;7.938;2023-04-15T06:07:15;2.37;;;1.80;;
8490;SDS011;4282;49.986;7.938;2023-04-15T06:09:43;5.80;;;2.80;;
8490;SDS011;4282;49.986;7.938;2023-04-15T06:12:11;2.73;;;2.30;;
8490;SDS011;4282;49.986;7.938;2023-04-15T06:14:39;3.33;;;1.60;;
8490;SDS011;4282;49.986;7.938;2023-04-15T06:17:08;3.00;;;1.83;;
8490;SDS011;4282;49.986;7.938;2023-04-15T06:19:41;3.20;;;1.63;;
8490;SDS011;4282;49.986;7.938;2023-04-15T06:22:09;3.70;;;1.30;;
8490;SDS011;4282;49.986;7.938;2023-04-15T06:24:38;2.27;;;1.50;;
8490;SDS011;4282;49.986;7.938;2023-04-15T06:27:06;2.60;;;1.63;;
8490;SDS011;4282;49.986;7.938;2023-04-15T06:29:34;3.23;;;1.57;;
8490;SDS011;4282;49.986;7.938;2023-04-15T06:32:03;5.63;;;1.67;;
8490;SDS011;4282;49.986;7.938;2023-04-15T06:34:31;1.60;;;1.50;;
8490;SDS011;4282;49.986;7.938;2023-04-15T06:37:02;2.50;;;1.40;;
8490;SDS011;4282;49.986;7.938;2023-04-15T06:39:30;3.20;;;1.40;;
8490;SDS011;4282;49.986;7.938;2023-04-15T06:41:58;3.37;;;1.50;;
8490;SDS011;4282;49.986;7.938;2023-04-15T06:44:27;2.33;;;1.30;;
8490;SDS011;4282;49.986;7.938;2023-04-15T06:46:56;6.10;;;1.70;;
8490;SDS011;4282;49.986;7.938;2023-04-15T06:49:24;2.50;;;1.50;;
8490;SDS011;4282;49.986;7.938;2023-04-15T06:51:52;3.27;;;1.43;;
8490;SDS011;4282;49.986;7.938;2023-04-15T06:54:23;2.50;;;1.27;;
8490;SDS011;4282;49.986;7.938;2023-04-15T06:56:51;3.27;;;1.30;;
8490;SDS011;4282;49.986;7.938;2023-04-15T06:59:19;2.70;;;1.70;;
8490;SDS011;4282;49.986;7.938;2023-04-15T07:01:48;3.50;;;1.53;;
8490;SDS011;4282;49.986;7.938;2023-04-15T07:04:16;4.43;;;1.60;;
8490;SDS011;4282;49.986;7.938;2023-04-15T07:06:44;2.40;;;1.50;;
8490;SDS011;4282;49.986;7.938;2023-04-15T07:09:13;4.47;;;1.73;;
8490;SDS011;4282;49.986;7.938;2023-04-15T07:11:43;5.97;;;1.57;;
8490;SDS011;4282;49.986;7.938;2023-04-15T07:14:12;3.80;;;1.37;;
8490;SDS011;4282;49.986;7.938;2023-04-15T07:16:40;2.20;;;1.40;;
8490;SDS011;4282;49.986;7.938;2023-04-15T07:19:08;4.80;;;1.67;;
8490;SDS011;4282;49.986;7.938;2023-04-15T07:21:36;1.93;;;1.17;;
8490;SDS011;4282;49.986;7.938;2023-04-15T07:24:05;2.03;;;1.30;;
8490;SDS011;4282;49.986;7.938;2023-04-15T07:26:34;6.13;;;2.07;;
8490;SDS011;4282;49.986;7.938;2023-04-15T07:29:05;4.70;;;1.80;;
8490;SDS011;4282;49.986;7.938;2023-04-15T07:31:33;3.93;;;2.07;;
8490;SDS011;4282;49.986;7.938;2023-04-15T07:34:01;4.10;;;1.33;;
8490;SDS011;4282;49.986;7.938;2023-04-15T07:36:30;1.93;;;1.60;;
8490;SDS011;4282;49.986;7.938;2023-04-15T07:38:58;3.20;;;1.63;;
8490;SDS011;4282;49.986;7.938;2023-04-15T07:41:27;2.77;;;1.40;;
8490;SDS011;4282;49.986;7.938;2023-04-15T07:43:56;3.70;;;1.73;;
8490;SDS011;4282;49.986;7.938;2023-04-15T07:46:27;4.03;;;1.67;;
8490;SDS011;4282;49.986;7.938;2023-04-15T07:48:55;3.17;;;1.50;;
8490;SDS011;4282;49.986;7.938;2023-04-15T07:51:24;3.40;;;1.63;;
8490;SDS011;4282;49.986;7.938;2023-04-15T07:53:53;2.37;;;1.80;;
8490;SDS011;4282;49.986;7.938;2023-04-15T07:56:21;4.30;;;1.63;;
8490;SDS011;4282;49.986;7.938;2023-04-15T07:58:50;3.53;;;1.60;;
8490;SDS011;4282;49.986;7.938;2023-04-15T08:01:18;3.07;;;1.47;;
8490;SDS011;4282;49.986;7.938;2023-04-15T08:03:49;4.80;;;1.97;;
8490;SDS011;4282;49.986;7.938;2023-04-15T08:06:17;2.13;;;1.33;;
8490;SDS011;4282;49.986;7.938;2023-04-15T08:08:46;3.83;;;2.30;;
8490;SDS011;4282;49.986;7.938;2023-04-15T08:11:14;3.70;;;1.80;;
8490;SDS011;4282;49.986;7.938;2023-04-15T08:13:42;3.17;;;1.80;;
8490;SDS011;4282;49.986;7.938;2023-04-15T08:16:15;2.97;;;1.90;;
8490;SDS011;4282;49.986;7.938;2023-04-15T08:18:45;3.83;;;1.50;;
8490;SDS011;4282;49.986;7.938;2023-04-15T08:21:17;4.27;;;1.67;;
8490;SDS011;4282;49.986;7.938;2023-04-15T08:23:46;4.67;;;1.80;;
8490;SDS011;4282;49.986;7.938;2023-04-15T08:26:16;2.20;;;1.70;;
8490;SDS011;4282;49.986;7.938;2023-04-15T08:28:44;2.60;;;1.80;;
8490;SDS011;4282;49.986;7.938;2023-04-15T08:31:13;3.10;;;1.90;;
8490;SDS011;4282;49.986;7.938;2023-04-15T08:33:41;3.00;;;1.83;;
8490;SDS011;4282;49.986;7.938;2023-04-15T08:36:12;4.87;;;2.33;;
8490;SDS011;4282;49.986;7.938;2023-04-15T08:38:44;4.20;;;1.80;;
8490;SDS011;4282;49.986;7.938;2023-04-15T08:41:16;2.30;;;1.63;;
8490;SDS011;4282;49.986;7.938;2023-04-15T08:43:50;2.50;;;1.70;;
8490;SDS011;4282;49.986;7.938;2023-04-15T08:46:20;6.17;;;1.73;;
8490;SDS011;4282;49.986;7.938;2023-04-15T08:48:49;3.30;;;1.50;;
8490;SDS011;4282;49.986;7.938;2023-04-15T08:51:18;3.77;;;1.97;;
8490;SDS011;4282;49.986;7.938;2023-04-15T08:53:49;3.33;;;2.17;;
8490;SDS011;4282;49.986;7.938;2023-04-15T08:56:18;3.83;;;1.87;;
8490;SDS011;4282;49.986;7.938;2023-04-15T08:58:46;5.27;;;1.90;;
8490;SDS011;4282;49.986;7.938;2023-04-15T09:01:15;3.83;;;1.73;;
8490;SDS011;4282;49.986;7.938;2023-04-15T09:03:43;4.60;;;1.83;;
8490;SDS011;4282;49.986;7.938;2023-04-15T09:06:11;3.77;;;1.83;;
8490;SDS011;4282;49.986;7.938;2023-04-15T09:08:40;2.40;;;2.00;;
8490;SDS011;4282;49.986;7.938;2023-04-15T09:11:11;3.77;;;1.73;;
8490;SDS011;4282;49.986;7.938;2023-04-15T09:13:39;3.43;;;2.00;;
8490;SDS011;4282;49.986;7.938;2023-04-15T09:16:07;4.20;;;1.70;;
8490;SDS011;4282;49.986;7.938;2023-04-15T09:18:37;5.30;;;1.73;;
8490;SDS011;4282;49.986;7.938;2023-04-15T09:21:06;2.57;;;2.00;;
8490;SDS011;4282;49.986;7.938;2023-04-15T09:23:36;3.37;;;1.70;;
8490;SDS011;4282;49.986;7.938;2023-04-15T09:26:05;3.10;;;1.80;;
8490;SDS011;4282;49.986;7.938;2023-04-15T09:28:36;4.90;;;1.83;;
8490;SDS011;4282;49.986;7.938;2023-04-15T09:31:08;3.13;;;1.90;;
8490;SDS011;4282;49.986;7.938;2023-04-15T09:33:52;4.33;;;2.10;;
8490;SDS011;4282;49.986;7.938;2023-04-15T09:36:21;3.37;;;1.77;;
8490;SDS011;4282;49.986;7.938;2023-04-15T09:38:53;4.10;;;1.83;;
8490;SDS011;4282;49.986;7.938;2023-04-15T09:41:23;5.13;;;2.23;;
8490;SDS011;4282;49.986;7.938;2023-04-15T09:43:55;4.50;;;1.60;;
8490;SDS011;4282;49.986;7.938;2023-04-15T09:49:09;3.90;;;2.03;;
8490;SDS011;4282;49.986;7.938;2023-04-15T09:51:38;3.20;;;2.00;;
8490;SDS011;4282;49.986;7.938;2023-04-15T09:54:06;5.27;;;1.80;;
8490;SDS011;4282;49.986;7.938;2023-04-15T09:56:35;4.33;;;1.93;;
8490;SDS011;4282;49.986;7.938;2023-04-15T09:59:08;5.37;;;2.20;;
8490;SDS011;4282;49.986;7.938;2023-04-15T10:01:37;3.10;;;1.90;;
8490;SDS011;4282;49.986;7.938;2023-04-15T10:04:05;4.53;;;2.07;;
8490;SDS011;4282;49.986;7.938;2023-04-15T10:06:33;4.23;;;2.03;;
8490;SDS011;4282;49.986;7.938;2023-04-15T10:09:01;3.17;;;1.77;;
8490;SDS011;4282;49.986;7.938;2023-04-15T10:11:30;3.57;;;1.97;;
8490;SDS011;4282;49.986;7.938;2023-04-15T10:13:59;2.20;;;1.50;;
8490;SDS011;4282;49.986;7.938;2023-04-15T10:16:30;2.00;;;1.33;;
8490;SDS011;4282;49.986;7.938;2023-04-15T10:19:00;3.13;;;2.07;;
8490;SDS011;4282;49.986;7.938;2023-04-15T10:21:29;2.33;;;1.60;;
8490;SDS011;4282;49.986;7.938;2023-04-15T10:23:57;2.43;;;1.63;;
8490;SDS011;4282;49.986;7.938;2023-04-15T10:26:26;3.30;;;1.50;;
8490;SDS011;4282;49.986;7.938;2023-04-15T10:28:55;2.57;;;1.50;;
8490;SDS011;4282;49.986;7.938;2023-04-15T10:31:23;4.67;;;2.00;;
8490;SDS011;4282;49.986;7.938;2023-04-15T10:33:54;1.57;;;1.43;;
8490;SDS011;4282;49.986;7.938;2023-04-15T10:36:23;2.90;;;1.63;;
8490;SDS011;4282;49.986;7.938;2023-04-15T10:38:51;2.30;;;1.70;;
8490;SDS011;4282;49.986;7.938;2023-04-15T10:41:20;2.37;;;1.67;;
8490;SDS011;4282;49.986;7.938;2023-04-15T10:43:51;2.23;;;1.47;;
8490;SDS011;4282;49.986;7.938;2023-04-15T10:46:21;3.03;;;1.80;;
8490;SDS011;4282;49.986;7.938;2023-04-15T10:48:50;2.37;;;1.63;;
8490;SDS011;4282;49.986;7.938;2023-04-15T10:51:31;2.27;;;1.50;;
8490;SDS011;4282;49.986;7.938;2023-04-15T10:54:00;3.67;;;1.43;;
8490;SDS011;4282;49.986;7.938;2023-04-15T10:56:28;3.37;;;1.50;;
8490;SDS011;4282;49.986;7.938;2023-04-15T10:58:57;1.93;;;1.63;;
8490;SDS011;4282;49.986;7.938;2023-04-15T11:07:37;3.60;;;1.90;;
8490;SDS011;4282;49.986;7.938;2023-04-15T11:13:25;2.70;;;1.90;;
8490;SDS011;4282;49.986;7.938;2023-04-15T11:15:58;3.85;;;1.40;;
8490;SDS011;4282;49.986;7.938;2023-04-15T11:18:28;2.50;;;1.57;;
8490;SDS011;4282;49.986;7.938;2023-04-15T11:20:58;4.03;;;1.10;;
8490;SDS011;4282;49.986;7.938;2023-04-15T11:23:33;2.20;;;1.30;;
8490;SDS011;4282;49.986;7.938;2023-04-15T11:26:04;1.57;;;1.07;;
8490;SDS011;4282;49.986;7.938;2023-04-15T11:28:34;1.23;;;0.80;;
8490;SDS011;4282;49.986;7.938;2023-04-15T11:31:07;2.85;;;1.20;;
8490;SDS011;4282;49.986;7.938;2023-04-15T11:33:52;1.97;;;1.13;;
8490;SDS011;4282;49.986;7.938;2023-04-15T11:36:23;2.47;;;1.10;;
8490;SDS011;4282;49.986;7.938;2023-04-15T11:38:56;2.60;;;1.10;;
8490;SDS011;4282;49.986;7.938;2023-04-15T11:41:25;2.07;;;1.20;;
8490;SDS011;4282;49.986;7.938;2023-04-15T11:43:53;1.87;;;1.10;;
8490;SDS011;4282;49.986;7.938;2023-04-15T11:46:27;1.60;;;1.00;;
8490;SDS011;4282;49.986;7.938;2023-04-15T11:48:55;0.80;;;0.73;;
8490;SDS011;4282;49.986;7.938;2023-04-15T11:51:24;2.55;;;0.80;;
8490;SDS011;4282;49.986;7.938;2023-04-15T11:53:55;1.17;;;0.70;;
8490;SDS011;4282;49.986;7.938;2023-04-15T11:56:23;1.30;;;0.80;;
8490;SDS011;4282;49.986;7.938;2023-04-15T11:58:53;0.53;;;0.50;;
8490;SDS011;4282;49.986;7.938;2023-04-15T12:01:29;0.97;;;0.40;;
8490;SDS011;4282;49.986;7.938;2023-04-15T12:03:59;1.33;;;0.60;;
8490;SDS011;4282;49.986;7.938;2023-04-15T12:06:30;1.53;;;0.50;;
8490;SDS011;4282;49.986;7.938;2023-04-15T12:09:02;0.80;;;0.57;;
8490;SDS011;4282;49.986;7.938;2023-04-15T12:11:35;1.40;;;0.57;;
8490;SDS011;4282;49.986;7.938;2023-04-15T12:14:05;2.00;;;0.87;;
8490;SDS011;4282;49.986;7.938;2023-04-15T12:16:37;1.10;;;0.90;;
8490;SDS011;4282;49.986;7.938;2023-04-15T12:19:08;1.10;;;0.60;;
8490;SDS011;4282;49.986;7.938;2023-04-15T12:21:37;0.50;;;0.50;;
8490;SDS011;4282;49.986;7.938;2023-04-15T12:24:10;0.77;;;0.60;;
8490;SDS011;4282;49.986;7.938;2023-04-15T12:26:42;2.10;;;0.63;;
8490;SDS011;4282;49.986;7.938;2023-04-15T12:29:12;1.57;;;0.70;;
8490;SDS011;4282;49.986;7.938;2023-04-15T12:31:48;1.37;;;0.53;;
8490;SDS011;4282;49.986;7.938;2023-04-15T12:34:17;2.13;;;0.57;;
8490;SDS011;4282;49.986;7.938;2023-04-15T12:36:47;1.13;;;0.80;;
8490;SDS011;4282;49.986;7.938;2023-04-15T12:39:18;1.77;;;0.43;;
8490;SDS011;4282;49.986;7.938;2023-04-15T12:41:49;0.50;;;0.50;;
8490;SDS011;4282;49.986;7.938;2023-04-15T12:44:17;1.37;;;0.67;;
8490;SDS011;4282;49.986;7.938;2023-04-15T12:46:45;0.47;;;0.47;;
8490;SDS011;4282;49.986;7.938;2023-04-15T12:49:14;1.47;;;0.57;;
8490;SDS011;4282;49.986;7.938;2023-04-15T12:51:44;1.93;;;0.60;;
8490;SDS011;4282;49.986;7.938;2023-04-15T12:54:12;0.70;;;0.50;;
8490;SDS011;4282;49.986;7.938;2023-04-15T12:56:43;0.83;;;0.40;;
8490;SDS011;4282;49.986;7.938;2023-04-15T12:59:13;0.60;;;0.60;;
8490;SDS011;4282;49.986;7.938;2023-04-15T13:01:42;0.63;;;0.60;;
8490;SDS011;4282;49.986;7.938;2023-04-15T13:04:11;1.00;;;0.80;;
8490;SDS011;4282;49.986;7.938;2023-04-15T13:06:39;0.67;;;0.67;;
8490;SDS011;4282;49.986;7.938;2023-04-15T13:09:07;0.70;;;0.70;;
8490;SDS011;4282;49.986;7.938;2023-04-15T13:11:36;1.33;;;0.77;;
8490;SDS011;4282;49.986;7.938;2023-04-15T13:14:07;1.10;;;0.80;;
8490;SDS011;4282;49.986;7.938;2023-04-15T13:16:37;0.90;;;0.63;;
8490;SDS011;4282;49.986;7.938;2023-04-15T13:19:05;1.87;;;0.70;;
8490;SDS011;4282;49.986;7.938;2023-04-15T13:21:33;0.80;;;0.80;;
8490;SDS011;4282;49.986;7.938;2023-04-15T13:24:02;0.60;;;0.60;;
8490;SDS011;4282;49.986;7.938;2023-04-15T13:26:31;1.10;;;0.80;;
8490;SDS011;4282;49.986;7.938;2023-04-15T13:28:59;2.00;;;0.83;;
8490;SDS011;4282;49.986;7.938;2023-04-15T13:31:30;0.80;;;0.60;;
8490;SDS011;4282;49.986;7.938;2023-04-15T13:33:58;1.13;;;0.70;;
8490;SDS011;4282;49.986;7.938;2023-04-15T13:36:26;0.80;;;0.77;;
8490;SDS011;4282;49.986;7.938;2023-04-15T13:38:54;1.13;;;0.70;;
8490;SDS011;4282;49.986;7.938;2023-04-15T13:41:24;1.37;;;0.97;;
8490;SDS011;4282;49.986;7.938;2023-04-15T13:43:52;0.70;;;0.70;;
8490;SDS011;4282;49.986;7.938;2023-04-15T13:46:20;1.00;;;0.90;;
8490;SDS011;4282;49.986;7.938;2023-04-15T13:48:52;1.30;;;0.73;;
8490;SDS011;4282;49.986;7.938;2023-04-15T13:51:20;1.27;;;0.83;;
8490;SDS011;4282;49.986;7.938;2023-04-15T13:53:49;1.63;;;1.43;;
8490;SDS011;4282;49.986;7.938;2023-04-15T13:56:17;9.27;;;6.13;;
8490;SDS011;4282;49.986;7.938;2023-04-15T13:58:45;2.13;;;1.40;;
8490;SDS011;4282;49.986;7.938;2023-04-15T14:01:13;1.23;;;0.90;;
8490;SDS011;4282;49.986;7.938;2023-04-15T14:03:42;1.30;;;1.17;;
8490;SDS011;4282;49.986;7.938;2023-04-15T14:06:12;0.90;;;0.90;;
8490;SDS011;4282;49.986;7.938;2023-04-15T14:08:41;1.77;;;1.20;;
8490;SDS011;4282;49.986;7.938;2023-04-15T14:11:09;1.10;;;1.00;;
8490;SDS011;4282;49.986;7.938;2023-04-15T14:13:38;1.90;;;1.20;;
8490;SDS011;4282;49.986;7.938;2023-04-15T14:16:06;1.37;;;1.17;;
8490;SDS011;4282;49.986;7.938;2023-04-15T14:18:34;2.53;;;1.00;;
8490;SDS011;4282;49.986;7.938;2023-04-15T14:21:04;1.43;;;1.20;;
8490;SDS011;4282;49.986;7.938;2023-04-15T14:23:35;1.60;;;1.30;;
8490;SDS011;4282;49.986;7.938;2023-04-15T14:26:03;1.53;;;1.43;;
8490;SDS011;4282;49.986;7.938;2023-04-15T14:28:32;1.47;;;1.37;;
8490;SDS011;4282;49.986;7.938;2023-04-15T14:31:02;1.93;;;1.23;;
8490;SDS011;4282;49.986;7.938;2023-04-15T14:33:30;1.50;;;1.40;;
8490;SDS011;4282;49.986;7.938;2023-04-15T14:35:59;2.90;;;2.70;;
8490;SDS011;4282;49.986;7.938;2023-04-15T14:38:27;2.40;;;2.20;;
8490;SDS011;4282;49.986;7.938;2023-04-15T14:40:58;1.20;;;1.10;;
8490;SDS011;4282;49.986;7.938;2023-04-15T14:43:26;1.43;;;1.33;;
8490;SDS011;4282;49.986;7.938;2023-04-15T14:45:54;1.83;;;1.73;;
8490;SDS011;4282;49.986;7.938;2023-04-15T14:48:22;1.77;;;1.67;;
8490;SDS011;4282;49.986;7.938;2023-04-15T14:50:51;2.10;;;1.90;;
8490;SDS011;4282;49.986;7.938;2023-04-15T14:53:19;2.53;;;1.67;;
8490;SDS011;4282;49.986;7.938;2023-04-15T14:55:47;2.40;;;1.93;;
8490;SDS011;4282;49.986;7.938;2023-04-15T14:58:18;2.63;;;2.43;;
8490;SDS011;4282;49.986;7.938;2023-04-15T15:00:46;2.37;;;1.77;;
8490;SDS011;4282;49.986;7.938;2023-04-15T15:03:14;2.37;;;2.20;;
8490;SDS011;4282;49.986;7.938;2023-04-15T15:05:43;2.50;;;2.30;;
8490;SDS011;4282;49.986;7.938;2023-04-15T15:08:12;4.23;;;2.70;;
8490;SDS011;4282;49.986;7.938;2023-04-15T15:10:40;3.27;;;2.47;;
8490;SDS011;4282;49.986;7.938;2023-04-15T15:13:09;2.97;;;2.77;;
8490;SDS011;4282;49.986;7.938;2023-04-15T15:15:41;3.30;;;2.97;;
8490;SDS011;4282;49.986;7.938;2023-04-15T15:18:09;3.10;;;2.80;;
8490;SDS011;4282;49.986;7.938;2023-04-15T15:20:38;2.80;;;2.50;;
8490;SDS011;4282;49.986;7.938;2023-04-15T15:23:06;3.50;;;3.20;;
8490;SDS011;4282;49.986;7.938;2023-04-15T15:25:34;5.17;;;3.60;;
8490;SDS011;4282;49.986;7.938;2023-04-15T15:28:02;3.30;;;3.10;;
8490;SDS011;4282;49.986;7.938;2023-04-15T15:30:31;3.90;;;3.50;;
8490;SDS011;4282;49.986;7.938;2023-04-15T15:33:02;3.87;;;3.47;;
8490;SDS011;4282;49.986;7.938;2023-04-15T15:35:30;4.30;;;3.90;;
8490;SDS011;4282;49.986;7.938;2023-04-15T15:37:59;4.20;;;3.80;;
8490;SDS011;4282;49.986;7.938;2023-04-15T15:40:27;3.40;;;3.10;;